Check out our new BloomSky Weather System.

Active alerts


No alerts


Thunder radar  blitzortung!


Rain radar more information rain snow radar


Visit our other weather sites:

Template documentation
and downloads

And another site



Weather Underground History page Text

Daily Summary for February 1, 2018 Units:  English    Metric   Both
« Previous Day
Next Day »
Daily Weekly Monthly Yearly Custom
  High: Low: Average:
Temperature: TemperatureF °F 54.9 °F 65.2 °F
Dew Point: DewpointF °F 46.6 °F 57.5 °F
Humidity: Humidity % 52 % 77 %
Wind Speed: WindSpeedMPH mph 0.0 mph 2.6 mph
Wind Gust: WindSpeedGustMPH mph - -
Wind:- - WSW
Pressure: PressureIn in 29.96 in -
Precipitation: 0.00 in    
Historical Graphs
 
 
Tabular Data for February 1, 2018
Time Temperature Dew Point Pressure Wind Wind Speed Wind Gust Humidity Rainfall Rate (Hourly)
TemperatureF °F DewpointF °F PressureIn in Calm     Humidity % HourlyPrecipIn in
00:04 59.7 °F 56.1 °F 29.97 in South 5.0 mph 14.0 mph 88 % 0.00 in
00:09 59.9 °F 56.3 °F 29.97 in SSE 4.0 mph 11.0 mph 88 % 0.00 in
00:14 60.1 °F 56.5 °F 29.97 in South 2.0 mph 13.0 mph 88 % 0.00 in
00:19 60.3 °F 56.7 °F 29.97 in SSE 3.0 mph 13.0 mph 88 % 0.00 in
00:24 60.3 °F 56.7 °F 29.97 in SSW 6.0 mph 13.0 mph 88 % 0.00 in
00:29 60.3 °F 56.7 °F 29.97 in SW 7.0 mph 12.0 mph 88 % 0.00 in
00:34 60.3 °F 56.7 °F 29.97 in SSE 2.0 mph 12.0 mph 88 % 0.00 in
00:39 60.3 °F 56.7 °F 29.97 in SSW 4.0 mph 11.0 mph 88 % 0.00 in
00:44 60.3 °F 56.7 °F 29.97 in SE 3.0 mph 11.0 mph 88 % 0.00 in
00:49 60.3 °F 57.0 °F 29.97 in SSW 6.0 mph 11.0 mph 89 % 0.00 in
00:54 60.3 °F 57.0 °F 29.97 in South 3.0 mph 11.0 mph 89 % 0.00 in
00:59 60.3 °F 57.0 °F 29.96 in SSE 3.0 mph 11.0 mph 89 % 0.00 in
01:04 60.3 °F 57.0 °F 29.96 in South 4.0 mph 9.0 mph 89 % 0.00 in
01:09 60.3 °F 57.0 °F 29.97 in SW 3.0 mph 9.0 mph 89 % 0.00 in
01:14 60.1 °F 56.8 °F 29.97 in SSW 3.0 mph 9.0 mph 89 % 0.00 in
01:19 60.1 °F 56.8 °F 29.97 in SSW 4.0 mph 8.0 mph 89 % 0.00 in
01:24 60.1 °F 56.8 °F 29.97 in SSW 2.0 mph 8.0 mph 89 % 0.00 in
01:29 60.1 °F 56.8 °F 29.97 in South 3.0 mph 8.0 mph 89 % 0.00 in
01:34 60.1 °F 57.2 °F 29.97 in SSW 6.0 mph 7.0 mph 90 % 0.00 in
01:39 60.1 °F 57.2 °F 29.97 in SSW 4.0 mph 9.0 mph 90 % 0.00 in
01:45 60.1 °F 56.8 °F 29.97 in South 1.0 mph 9.0 mph 89 % 0.00 in
01:50 60.1 °F 57.2 °F 29.97 in SSW 2.0 mph 9.0 mph 90 % 0.00 in
01:55 59.9 °F 57.0 °F 29.97 in SW 3.0 mph 7.0 mph 90 % 0.00 in
02:00 59.9 °F 57.0 °F 29.97 in SSW 4.0 mph 6.0 mph 90 % 0.00 in
02:05 59.9 °F 57.0 °F 29.96 in SSW 3.0 mph 8.0 mph 90 % 0.00 in
02:10 59.9 °F 57.0 °F 29.96 in SSW 2.0 mph 8.0 mph 90 % 0.00 in
02:15 59.7 °F 56.8 °F 29.96 in SSW 4.0 mph 8.0 mph 90 % 0.00 in
02:20 59.5 °F 56.7 °F 29.96 in South 1.0 mph 8.0 mph 90 % 0.00 in
02:21 59.5 °F 56.7 °F 29.96 in South 2.0 mph 8.0 mph 90 % 0.00 in
02:26 59.5 °F 56.8 °F 29.96 in SSW 2.0 mph 8.0 mph 91 % 0.00 in
02:31 59.4 °F 56.7 °F 29.96 in Calm   6.0 mph 91 % 0.00 in
02:36 59.2 °F 56.5 °F 29.96 in Calm   4.0 mph 91 % 0.00 in
02:41 59.2 °F 56.5 °F 29.96 in SSW 2.0 mph 3.0 mph 91 % 0.00 in
02:46 59.0 °F 56.3 °F 29.96 in South 2.0 mph 3.0 mph 91 % 0.00 in
02:51 58.8 °F 56.5 °F 29.96 in SW 2.0 mph 3.0 mph 92 % 0.00 in
02:56 58.8 °F 56.5 °F 29.96 in SSE 2.0 mph 4.0 mph 92 % 0.00 in
03:01 58.8 °F 56.5 °F 29.96 in SSE 2.0 mph 5.0 mph 92 % 0.00 in
03:06 58.8 °F 56.5 °F 29.96 in SSW 1.0 mph 7.0 mph 92 % 0.00 in
03:12 58.8 °F 56.5 °F 29.96 in South 1.0 mph 7.0 mph 92 % 0.00 in
03:17 58.8 °F 56.5 °F 29.96 in SSW 1.0 mph 7.0 mph 92 % 0.00 in
03:22 58.6 °F 56.3 °F 29.96 in SSE 4.0 mph 4.0 mph 92 % 0.00 in
03:27 58.6 °F 56.7 °F 29.96 in SSW 1.0 mph 4.0 mph 93 % 0.00 in
03:32 58.6 °F 56.7 °F 29.96 in South 1.0 mph 4.0 mph 93 % 0.00 in
03:37 58.5 °F 56.5 °F 29.96 in Calm   4.0 mph 93 % 0.00 in
03:42 58.3 °F 56.3 °F 29.96 in South 1.0 mph 4.0 mph 93 % 0.00 in
03:47 58.3 °F 56.3 °F 29.96 in SSW 1.0 mph 2.0 mph 93 % 0.00 in
03:52 58.1 °F 56.3 °F 29.96 in SSW 1.0 mph 3.0 mph 94 % 0.00 in
03:57 57.9 °F 56.1 °F 29.96 in South 1.0 mph 3.0 mph 94 % 0.00 in
04:02 57.9 °F 56.1 °F 29.96 in SSE 2.0 mph 3.0 mph 94 % 0.00 in
04:07 57.9 °F 56.1 °F 29.96 in SE 2.0 mph 5.0 mph 94 % 0.00 in
04:12 57.9 °F 56.1 °F 29.96 in Calm   5.0 mph 94 % 0.00 in
04:17 57.7 °F 55.9 °F 29.96 in SSW 1.0 mph 5.0 mph 94 % 0.00 in
04:22 57.9 °F 56.5 °F 29.96 in SSW 1.0 mph 3.0 mph 95 % 0.00 in
04:27 57.9 °F 56.5 °F 29.96 in Calm   3.0 mph 95 % 0.00 in
04:32 58.1 °F 56.7 °F 29.96 in SW 2.0 mph 3.0 mph 95 % 0.00 in
04:37 58.3 °F 56.8 °F 29.96 in SSE 3.0 mph 3.0 mph 95 % 0.00 in
04:42 58.3 °F 56.8 °F 29.96 in SE 1.0 mph 3.0 mph 95 % 0.00 in
04:47 58.3 °F 56.8 °F 29.96 in Calm   3.0 mph 95 % 0.00 in
04:52 57.9 °F 56.5 °F 29.96 in Calm   3.0 mph 95 % 0.00 in
04:57 57.7 °F 56.3 °F 29.96 in Calm   2.0 mph 95 % 0.00 in
05:02 57.4 °F 55.6 °F 29.96 in Calm   2.0 mph 94 % 0.00 in
05:07 57.0 °F 55.2 °F 29.96 in Calm   1.0 mph 94 % 0.00 in
05:12 56.8 °F 55.2 °F 29.96 in Calm   1.0 mph 94 % 0.00 in
05:17 56.7 °F 55.0 °F 29.96 in Calm   1.0 mph 94 % 0.00 in
05:22 56.5 °F 55.0 °F 29.96 in Calm   1.0 mph 95 % 0.00 in
05:28 56.5 °F 55.0 °F 29.96 in SSE 1.0 mph 1.0 mph 95 % 0.00 in
05:33 56.5 °F 55.0 °F 29.96 in Calm   1.0 mph 95 % 0.00 in
05:38 56.5 °F 55.0 °F 29.96 in SSE 1.0 mph 1.0 mph 95 % 0.00 in
05:43 56.5 °F 55.4 °F 29.96 in Calm   1.0 mph 96 % 0.00 in
05:48 56.3 °F 54.9 °F 29.96 in Calm   1.0 mph 95 % 0.00 in
05:53 56.1 °F 54.7 °F 29.96 in Calm   1.0 mph 95 % 0.00 in
05:58 56.1 °F 55.0 °F 29.96 in Calm   1.0 mph 96 % 0.00 in
06:03 55.9 °F 54.9 °F 29.97 in Calm   1.0 mph 96 % 0.00 in
06:08 55.9 °F 54.9 °F 29.97 in Calm   1.0 mph 96 % 0.00 in
06:13 55.9 °F 54.9 °F 29.97 in Calm     96 % 0.00 in
06:18 55.8 °F 54.7 °F 29.98 in Calm     96 % 0.00 in
06:23 55.8 °F 54.7 °F 29.98 in Calm     96 % 0.00 in
06:28 55.6 °F 54.5 °F 29.97 in Calm     96 % 0.00 in
06:33 55.6 °F 54.5 °F 29.97 in Calm     96 % 0.00 in
06:38 55.2 °F 54.1 °F 29.98 in Calm     96 % 0.00 in
06:43 55.2 °F 54.1 °F 29.98 in Calm     96 % 0.00 in
06:48 55.4 °F 54.5 °F 29.98 in Calm     97 % 0.00 in
06:53 55.6 °F 54.7 °F 29.98 in Calm   1.0 mph 97 % 0.00 in
06:58 55.6 °F 54.7 °F 29.98 in Calm   1.0 mph 97 % 0.00 in
07:03 55.6 °F 54.7 °F 29.98 in Calm   1.0 mph 97 % 0.00 in
07:08 55.2 °F 54.1 °F 29.98 in Calm   1.0 mph 96 % 0.00 in
07:13 55.0 °F 54.0 °F 29.98 in Calm   1.0 mph 96 % 0.00 in
07:18 54.9 °F 54.0 °F 29.98 in Calm   1.0 mph 97 % 0.00 in
07:23 54.9 °F 54.0 °F 29.98 in Calm   1.0 mph 97 % 0.00 in
07:28 55.0 °F 54.1 °F 29.98 in Calm   1.0 mph 97 % 0.00 in
07:33 55.2 °F 54.3 °F 29.98 in Calm   1.0 mph 97 % 0.00 in
07:38 55.2 °F 54.3 °F 29.98 in Calm   1.0 mph 97 % 0.00 in
07:43 55.8 °F 54.9 °F 29.99 in Calm   1.0 mph 97 % 0.00 in
07:48 55.9 °F 55.4 °F 29.99 in Calm   1.0 mph 98 % 0.00 in
07:53 56.1 °F 55.2 °F 29.99 in Calm   1.0 mph 97 % 0.00 in
07:58 56.1 °F 55.2 °F 29.99 in Calm   1.0 mph 97 % 0.00 in
08:03 56.3 °F 55.4 °F 29.99 in Calm   1.0 mph 97 % 0.00 in
08:08 56.5 °F 55.9 °F 29.99 in Calm   1.0 mph 98 % 0.00 in
08:13 56.7 °F 56.1 °F 29.99 in SE 1.0 mph   98 % 0.00 in
08:18 57.0 °F 56.5 °F 29.99 in SSE 1.0 mph 1.0 mph 98 % 0.00 in
08:23 57.2 °F 56.7 °F 30.00 in South 1.0 mph 2.0 mph 98 % 0.00 in
08:28 57.6 °F 57.0 °F 30.00 in ESE 1.0 mph 3.0 mph 98 % 0.00 in
08:33 57.7 °F 57.2 °F 30.00 in Calm   3.0 mph 98 % 0.00 in
08:38 58.3 °F 57.7 °F 30.00 in Calm   3.0 mph 98 % 0.00 in
08:43 58.6 °F 58.1 °F 30.00 in SSE 1.0 mph 3.0 mph 98 % 0.00 in
08:48 58.8 °F 58.3 °F 30.01 in SE 1.0 mph 3.0 mph 98 % 0.00 in
08:53 59.2 °F 58.6 °F 30.01 in SE 1.0 mph 3.0 mph 98 % 0.00 in
08:58 59.5 °F 59.0 °F 30.01 in SSW 1.0 mph 3.0 mph 98 % 0.00 in
09:03 60.1 °F 59.5 °F 30.01 in SW 1.0 mph 4.0 mph 98 % 0.00 in
09:08 60.4 °F 59.9 °F 30.02 in Calm   4.0 mph 98 % 0.00 in
09:13 61.0 °F 60.4 °F 30.02 in SSW 2.0 mph 4.0 mph 98 % 0.00 in
09:18 61.3 °F 60.4 °F 30.02 in SSW 2.0 mph 4.0 mph 97 % 0.00 in
09:23 61.7 °F 60.8 °F 30.02 in SSE 3.0 mph 4.0 mph 97 % 0.00 in
09:28 62.1 °F 61.0 °F 30.02 in SSE 3.0 mph 5.0 mph 96 % 0.00 in
09:33 62.4 °F 61.3 °F 30.02 in SSW 2.0 mph 5.0 mph 96 % 0.00 in
09:38 62.8 °F 61.3 °F 30.02 in SSE 2.0 mph 7.0 mph 95 % 0.00 in
09:43 63.0 °F 61.5 °F 30.02 in SSE 2.0 mph 8.0 mph 95 % 0.00 in
09:48 63.3 °F 61.5 °F 30.03 in SSW 2.0 mph 8.0 mph 94 % 0.00 in
09:53 63.9 °F 62.1 °F 30.03 in South 4.0 mph 8.0 mph 94 % 0.00 in
09:58 64.2 °F 62.4 °F 30.03 in SSW 5.0 mph 7.0 mph 94 % 0.00 in
10:03 64.8 °F 62.4 °F 30.03 in South 7.0 mph 7.0 mph 92 % 0.00 in
10:08 65.1 °F 62.8 °F 30.02 in SE 2.0 mph 10.0 mph 92 % 0.00 in
10:13 65.7 °F 63.0 °F 30.02 in SW 4.0 mph 10.0 mph 91 % 0.00 in
10:18 66.2 °F 63.5 °F 30.03 in SE 4.0 mph 10.0 mph 91 % 0.00 in
10:23 66.6 °F 63.5 °F 30.03 in South 4.0 mph 8.0 mph 90 % 0.00 in
10:28 67.1 °F 63.7 °F 30.03 in SSE 2.0 mph 11.0 mph 89 % 0.00 in
10:33 67.8 °F 64.2 °F 30.03 in SSE 4.0 mph 11.0 mph 88 % 0.00 in
10:38 68.5 °F 64.8 °F 30.03 in SW 6.0 mph 11.0 mph 88 % 0.00 in
10:43 68.7 °F 64.4 °F 30.03 in SSW 4.0 mph 10.0 mph 86 % 0.00 in
10:48 69.3 °F 64.9 °F 30.03 in SSE 2.0 mph 11.0 mph 86 % 0.00 in
10:53 69.4 °F 64.4 °F 30.03 in SW 8.0 mph 11.0 mph 84 % 0.00 in
10:58 69.6 °F 64.6 °F 30.02 in South 7.0 mph 12.0 mph 84 % 0.00 in
11:03 70.2 °F 64.8 °F 30.02 in South 2.0 mph 12.0 mph 83 % 0.00 in
11:08 70.5 °F 64.4 °F 30.02 in South 3.0 mph 12.0 mph 81 % 0.00 in
11:13 70.7 °F 64.6 °F 30.02 in SSW 6.0 mph 11.0 mph 81 % 0.00 in
11:18 70.9 °F 64.8 °F 30.02 in SE 1.0 mph 12.0 mph 81 % 0.00 in
11:23 71.4 °F 64.9 °F 30.03 in WNW 2.0 mph 12.0 mph 80 % 0.00 in
11:28 71.8 °F 64.6 °F 30.03 in NW 3.0 mph 12.0 mph 78 % 0.00 in
11:33 72.0 °F 64.4 °F 30.02 in SW 10.0 mph 10.0 mph 77 % 0.00 in
11:38 71.8 °F 63.9 °F 30.02 in North 2.0 mph 14.0 mph 76 % 0.00 in
11:43 71.6 °F 64.0 °F 30.01 in SSW 8.0 mph 14.0 mph 77 % 0.00 in
11:48 72.0 °F 64.4 °F 30.01 in SSW 15.0 mph 15.0 mph 77 % 0.00 in
11:53 72.1 °F 64.2 °F 30.01 in ESE 5.0 mph 15.0 mph 76 % 0.00 in
11:56 72.1 °F 64.6 °F 30.01 in SSW 6.0 mph 15.0 mph 77 % 0.00 in
12:01 72.3 °F 64.4 °F 30.00 in SSE 7.0 mph 15.0 mph 76 % 0.00 in
12:06 72.3 °F 64.4 °F 30.00 in SW 6.0 mph 13.0 mph 76 % 0.00 in
12:11 72.7 °F 64.8 °F 30.00 in SW 6.0 mph 13.0 mph 76 % 0.00 in
12:16 73.4 °F 64.9 °F 29.99 in SSW 7.0 mph 14.0 mph 75 % 0.00 in
12:21 74.1 °F 65.3 °F 29.99 in SW 7.0 mph 14.0 mph 74 % 0.00 in
12:26 74.5 °F 65.7 °F 29.99 in NW 1.0 mph 14.0 mph 74 % 0.00 in
12:31 74.7 °F 64.6 °F 29.99 in South 2.0 mph 14.0 mph 71 % 0.00 in
12:36 74.7 °F 65.1 °F 29.99 in WSW 3.0 mph 14.0 mph 72 % 0.00 in
12:42 74.7 °F 65.1 °F 29.99 in WSW 1.0 mph 10.0 mph 72 % 0.00 in
12:47 74.7 °F 64.6 °F 29.99 in SW 4.0 mph 10.0 mph 71 % 0.00 in
12:52 74.8 °F 64.4 °F 29.99 in SW 3.0 mph 10.0 mph 70 % 0.00 in
12:57 75.0 °F 64.2 °F 29.99 in SW 3.0 mph 12.0 mph 69 % 0.00 in
13:02 75.4 °F 64.0 °F 29.99 in SSW 8.0 mph 12.0 mph 68 % 0.00 in
13:07 75.6 °F 63.9 °F 29.98 in SSW 2.0 mph 12.0 mph 67 % 0.00 in
13:12 75.7 °F 64.8 °F 29.98 in SW 7.0 mph 12.0 mph 69 % 0.00 in
13:17 76.5 °F 64.8 °F 29.97 in SSW 5.0 mph 12.0 mph 67 % 0.00 in
13:22 76.8 °F 64.6 °F 29.97 in SW 3.0 mph 12.0 mph 66 % 0.00 in
13:27 76.8 °F 64.2 °F 29.97 in South 6.0 mph 9.0 mph 65 % 0.00 in
13:32 76.6 °F 64.0 °F 29.97 in SW 6.0 mph 9.0 mph 65 % 0.00 in
13:37 76.5 °F 64.2 °F 29.97 in South 3.0 mph 10.0 mph 66 % 0.00 in
13:42 76.6 °F 64.4 °F 29.97 in SSW 8.0 mph 10.0 mph 66 % 0.00 in
13:47 76.6 °F 64.0 °F 29.97 in SW 5.0 mph 10.0 mph 65 % 0.00 in
13:52 76.6 °F 64.0 °F 29.97 in WSW 4.0 mph 12.0 mph 65 % 0.00 in
13:57 76.8 °F 64.2 °F 29.96 in SSW 3.0 mph 12.0 mph 65 % 0.00 in
14:02 77.0 °F 63.9 °F 29.96 in NW 3.0 mph 12.0 mph 64 % 0.00 in
14:07 77.2 °F 64.0 °F 29.96 in SW 2.0 mph 10.0 mph 64 % 0.00 in
14:12 77.4 °F 63.9 °F 29.96 in SSW 2.0 mph 10.0 mph 63 % 0.00 in
14:17 77.5 °F 64.4 °F 29.96 in SW 5.0 mph 10.0 mph 64 % 0.00 in
14:21 77.5 °F 63.9 °F 29.96 in NW 4.0 mph 10.0 mph 63 % 0.00 in
14:27 77.5 °F 63.9 °F 29.96 in SSW 10.0 mph 10.0 mph 63 % 0.00 in
14:32 77.5 °F 63.5 °F 29.96 in South 4.0 mph 12.0 mph 62 % 0.00 in
14:37 77.7 °F 63.7 °F 29.97 in West 2.0 mph 12.0 mph 62 % 0.00 in
14:42 77.7 °F 63.7 °F 29.97 in SSW 2.0 mph 12.0 mph 62 % 0.00 in
14:47 77.9 °F 63.3 °F 29.97 in West 1.0 mph 10.0 mph 61 % 0.00 in
14:52 78.3 °F 63.7 °F 29.97 in WSW 4.0 mph 10.0 mph 61 % 0.00 in
14:57 78.3 °F 63.3 °F 29.97 in SW 1.0 mph 10.0 mph 60 % 0.00 in
15:02 78.6 °F 63.5 °F 29.97 in WNW 2.0 mph 7.0 mph 60 % 0.00 in
15:07 79.0 °F 63.5 °F 29.97 in SW 2.0 mph 7.0 mph 59 % 0.00 in
15:12 78.6 °F 63.5 °F 29.97 in SSW 3.0 mph 6.0 mph 60 % 0.00 in
15:17 78.4 °F 63.3 °F 29.97 in ENE 1.0 mph 5.0 mph 60 % 0.00 in
15:22 79.0 °F 63.9 °F 29.97 in WSW 1.0 mph 5.0 mph 60 % 0.00 in
15:27 79.0 °F 63.9 °F 29.97 in SW 2.0 mph 5.0 mph 60 % 0.00 in
15:32 78.6 °F 63.5 °F 29.97 in SSW 3.0 mph 5.0 mph 60 % 0.00 in
15:37 78.4 °F 63.3 °F 29.97 in SW 1.0 mph 5.0 mph 60 % 0.00 in
15:42 78.3 °F 63.3 °F 29.98 in WNW 1.0 mph 9.0 mph 60 % 0.00 in
15:47 78.1 °F 63.1 °F 29.98 in West 1.0 mph 9.0 mph 60 % 0.00 in
15:52 77.7 °F 63.1 °F 29.98 in SW 2.0 mph 9.0 mph 61 % 0.00 in
15:57 77.5 °F 63.0 °F 29.98 in SW 1.0 mph 8.0 mph 61 % 0.00 in
16:02 77.5 °F 63.0 °F 29.98 in SSW 4.0 mph 8.0 mph 61 % 0.00 in
16:07 77.4 °F 63.3 °F 29.99 in WNW 1.0 mph 8.0 mph 62 % 0.00 in
16:12 76.6 °F 63.5 °F 29.99 in NNE 5.0 mph 6.0 mph 64 % 0.00 in
16:17 75.9 °F 63.3 °F 29.99 in NNW 5.0 mph 7.0 mph 65 % 0.00 in
16:22 75.6 °F 63.3 °F 29.99 in NNW 4.0 mph 7.0 mph 66 % 0.00 in
16:27 75.4 °F 63.1 °F 29.99 in NW 5.0 mph 7.0 mph 66 % 0.00 in
16:32 75.0 °F 63.0 °F 29.99 in NNW 4.0 mph 10.0 mph 66 % 0.00 in
16:37 75.0 °F 63.0 °F 29.99 in NW 6.0 mph 10.0 mph 66 % 0.00 in
16:42 74.8 °F 62.8 °F 30.00 in NW 3.0 mph 10.0 mph 66 % 0.00 in
16:47 74.8 °F 62.2 °F 30.00 in NW 6.0 mph 8.0 mph 65 % 0.00 in
16:52 74.7 °F 62.1 °F 30.00 in NNW 3.0 mph 8.0 mph 65 % 0.00 in
16:57 74.5 °F 61.9 °F 30.00 in NW 5.0 mph 8.0 mph 65 % 0.00 in
17:02 74.1 °F 61.5 °F 30.00 in NNW 3.0 mph 8.0 mph 65 % 0.00 in
17:07 74.1 °F 61.5 °F 30.01 in NW 5.0 mph 7.0 mph 65 % 0.00 in
17:12 73.9 °F 61.3 °F 30.01 in NNW 1.0 mph 7.0 mph 65 % 0.00 in
17:17 73.8 °F 61.3 °F 30.01 in NNW 4.0 mph 7.0 mph 65 % 0.00 in
17:22 73.6 °F 61.2 °F 30.01 in NW 3.0 mph 7.0 mph 65 % 0.00 in
17:27 73.2 °F 60.8 °F 30.01 in NNW 2.0 mph 7.0 mph 65 % 0.00 in
17:32 73.2 °F 60.8 °F 30.01 in NW 2.0 mph 7.0 mph 65 % 0.00 in
17:37 73.0 °F 61.0 °F 30.01 in NW 1.0 mph 6.0 mph 66 % 0.00 in
17:42 72.9 °F 60.8 °F 30.01 in NNW 2.0 mph 5.0 mph 66 % 0.00 in
17:47 72.7 °F 60.6 °F 30.02 in NW 1.0 mph 3.0 mph 66 % 0.00 in
17:52 72.3 °F 60.8 °F 30.02 in NW 1.0 mph 3.0 mph 67 % 0.00 in
17:57 72.1 °F 60.6 °F 30.02 in NW 1.0 mph 2.0 mph 67 % 0.00 in
18:02 71.8 °F 60.6 °F 30.03 in NW 2.0 mph 3.0 mph 68 % 0.00 in
18:07 71.4 °F 60.3 °F 30.03 in NNW 1.0 mph 3.0 mph 68 % 0.00 in
18:12 71.2 °F 60.1 °F 30.03 in NW 1.0 mph 4.0 mph 68 % 0.00 in
18:17 71.1 °F 60.4 °F 30.04 in Calm   4.0 mph 69 % 0.00 in
18:22 70.9 °F 60.3 °F 30.04 in Calm   4.0 mph 69 % 0.00 in
18:27 70.3 °F 60.1 °F 30.04 in Calm   2.0 mph 70 % 0.00 in
18:32 70.0 °F 60.1 °F 30.04 in Calm   2.0 mph 71 % 0.00 in
18:37 69.6 °F 60.3 °F 30.05 in Calm   1.0 mph 72 % 0.00 in
18:42 69.6 °F 60.3 °F 30.05 in NW 1.0 mph 2.0 mph 72 % 0.00 in
18:47 69.6 °F 60.3 °F 30.06 in NW 2.0 mph 2.0 mph 72 % 0.00 in
18:52 69.6 °F 60.3 °F 30.06 in NW 3.0 mph 5.0 mph 72 % 0.00 in
18:57 69.8 °F 60.4 °F 30.06 in NW 2.0 mph 5.0 mph 72 % 0.00 in
19:02 69.8 °F 60.4 °F 30.07 in NNE 3.0 mph 8.0 mph 72 % 0.00 in
19:07 69.6 °F 60.3 °F 30.07 in NW 1.0 mph 8.0 mph 72 % 0.00 in
19:12 69.6 °F 60.3 °F 30.07 in NW 3.0 mph 8.0 mph 72 % 0.00 in
19:17 69.4 °F 60.1 °F 30.08 in NNE 4.0 mph 7.0 mph 72 % 0.00 in
19:22 69.3 °F 59.9 °F 30.08 in NW 2.0 mph 4.0 mph 72 % 0.00 in
19:27 69.3 °F 59.9 °F 30.08 in NW 2.0 mph 4.0 mph 72 % 0.00 in
19:32 69.1 °F 59.7 °F 30.09 in North 8.0 mph 8.0 mph 72 % 0.00 in
19:37 68.5 °F 57.2 °F 30.09 in NW 7.0 mph 14.0 mph 67 % 0.00 in
19:42 68.2 °F 56.3 °F 30.10 in NNW 3.0 mph 14.0 mph 66 % 0.00 in
19:47 67.8 °F 55.6 °F 30.10 in NW 2.0 mph 14.0 mph 65 % 0.00 in
19:52 67.5 °F 54.5 °F 30.10 in NNW 3.0 mph 13.0 mph 63 % 0.00 in
19:57 66.9 °F 52.5 °F 30.11 in NNW 6.0 mph 8.0 mph 60 % 0.00 in
20:02 66.7 °F 51.1 °F 30.11 in NNW 7.0 mph 8.0 mph 57 % 0.00 in
20:07 66.6 °F 50.4 °F 30.12 in NW 5.0 mph 11.0 mph 56 % 0.00 in
20:12 66.4 °F 49.3 °F 30.12 in NW 8.0 mph 11.0 mph 54 % 0.00 in
20:17 66.2 °F 48.0 °F 30.12 in NW 8.0 mph 11.0 mph 52 % 0.00 in
20:22 66.0 °F 47.8 °F 30.12 in NW 5.0 mph 12.0 mph 52 % 0.00 in
20:27 65.8 °F 47.7 °F 30.13 in NW 5.0 mph 12.0 mph 52 % 0.00 in
20:32 65.7 °F 47.5 °F 30.13 in NNW 5.0 mph 12.0 mph 52 % 0.00 in
20:37 65.5 °F 47.5 °F 30.13 in NW 5.0 mph 8.0 mph 52 % 0.00 in
20:42 65.1 °F 47.1 °F 30.13 in NW 5.0 mph 7.0 mph 52 % 0.00 in
20:47 65.1 °F 47.1 °F 30.14 in NNW 9.0 mph 9.0 mph 52 % 0.00 in
20:52 64.9 °F 46.9 °F 30.14 in NW 3.0 mph 9.0 mph 52 % 0.00 in
20:57 64.9 °F 46.9 °F 30.14 in NNW 1.0 mph 9.0 mph 52 % 0.00 in
21:02 64.8 °F 46.8 °F 30.14 in NNW 2.0 mph 9.0 mph 52 % 0.00 in
21:07 64.8 °F 46.8 °F 30.14 in NW 2.0 mph 9.0 mph 52 % 0.00 in
21:12 64.6 °F 46.6 °F 30.14 in North 3.0 mph 9.0 mph 52 % 0.00 in
21:17 64.4 °F 46.9 °F 30.14 in NW 3.0 mph 9.0 mph 53 % 0.00 in
21:22 64.2 °F 46.8 °F 30.14 in NW 4.0 mph 7.0 mph 53 % 0.00 in
21:27 64.0 °F 46.6 °F 30.14 in NW 2.0 mph 8.0 mph 53 % 0.00 in
21:32 64.0 °F 46.6 °F 30.15 in NW 2.0 mph 8.0 mph 53 % 0.00 in
21:37 63.9 °F 46.9 °F 30.15 in NNW 3.0 mph 8.0 mph 54 % 0.00 in
21:42 63.9 °F 46.9 °F 30.15 in NNW 4.0 mph 8.0 mph 54 % 0.00 in
21:47 63.7 °F 47.3 °F 30.15 in NW 4.0 mph 8.0 mph 55 % 0.00 in
21:52 63.5 °F 47.1 °F 30.15 in NW 2.0 mph 8.0 mph 55 % 0.00 in
21:57 63.3 °F 46.9 °F 30.15 in NW 2.0 mph 8.0 mph 55 % 0.00 in
22:02 63.1 °F 47.1 °F 30.16 in NW 3.0 mph 6.0 mph 56 % 0.00 in
22:07 63.1 °F 47.1 °F 30.16 in NW 3.0 mph 9.0 mph 56 % 0.00 in
22:12 63.1 °F 47.1 °F 30.16 in NW 4.0 mph 9.0 mph 56 % 0.00 in
22:17 63.0 °F 47.5 °F 30.17 in NNW 2.0 mph 9.0 mph 57 % 0.00 in
22:22 63.0 °F 47.5 °F 30.17 in NW 3.0 mph 6.0 mph 57 % 0.00 in
22:27 63.0 °F 47.5 °F 30.17 in West 4.0 mph 7.0 mph 57 % 0.00 in
22:32 62.8 °F 47.8 °F 30.17 in NW 4.0 mph 7.0 mph 58 % 0.00 in
22:37 62.8 °F 47.8 °F 30.17 in NW 2.0 mph 10.0 mph 58 % 0.00 in
22:42 62.4 °F 47.8 °F 30.17 in NW 3.0 mph 10.0 mph 59 % 0.00 in
22:47 62.2 °F 48.2 °F 30.17 in NW 3.0 mph 11.0 mph 60 % 0.00 in
22:52 62.1 °F 48.0 °F 30.17 in WNW 1.0 mph 11.0 mph 60 % 0.00 in
22:58 61.9 °F 48.2 °F 30.17 in NNW 1.0 mph 11.0 mph 61 % 0.00 in
23:03 61.5 °F 48.0 °F 30.17 in North 4.0 mph 6.0 mph 61 % 0.00 in
23:08 61.3 °F 48.2 °F 30.17 in NNW 2.0 mph 6.0 mph 62 % 0.00 in
23:13 61.2 °F 48.4 °F 30.17 in NNW 6.0 mph 6.0 mph 63 % 0.00 in
23:18 61.0 °F 48.4 °F 30.17 in NNW 3.0 mph 6.0 mph 63 % 0.00 in
23:23 60.8 °F 48.6 °F 30.17 in NNW 3.0 mph 7.0 mph 64 % 0.00 in
23:28 60.4 °F 48.6 °F 30.17 in WNW 2.0 mph 7.0 mph 65 % 0.00 in
23:33 60.4 °F 48.6 °F 30.18 in North 2.0 mph 7.0 mph 65 % 0.00 in
23:38 60.3 °F 48.9 °F 30.18 in NNW 3.0 mph 7.0 mph 66 % 0.00 in
23:43 60.3 °F 49.3 °F 30.18 in NNW 3.0 mph 7.0 mph 67 % 0.00 in
23:48 60.3 °F 49.3 °F 30.18 in NW 1.0 mph 7.0 mph 67 % 0.00 in
23:53 60.3 °F 49.6 °F 30.18 in NW 2.0 mph 7.0 mph 68 % 0.00 in
23:58 60.3 °F 49.6 °F 30.19 in North 2.0 mph 7.0 mph 68 % 0.00 in
Spring, Texas: Villages of Bridgestone
Compliments of Weather Underground - 2.75 mb

Script developed by  Jim McMurry - jmcmurry@mwt.net Adapted for the template by  Wim van der Kuil - Leuven-Template.eu

You find our weather info also at:

UK Metoffice

WeatherCloud

Weather Underground

Mid-South Weather Network

AWEKAS

Citizen Weather Observer Program (CWOP)

HAMweather, WeatherForYou, PWS Weather

Equipment we use:

Weather-station
Davis Vantage Vue

Weather-program
Meteohub

Weather-server
Debian 7.9 x86 (Guest)

Provider
DreamHost

Davis Vantage Vue

Meteohub

Debian 7.9 x86 (Guest)

DreamHost